Time;durP1;ratioP1;P1;durP2;ratioP2;P2;SDS_P1;SDS_P2;PMS_P1;PMS_P2;Temp;Humidity;BMP_temperature;BMP_pressure;BME280_temperature;BME280_humidity;BME280_pressure;Samples;Min_cycle;Max_cycle;Signal;HPM_P1;HPM_P2
2024/01/10 00:00:26;;;;;;;58.75;22.13;;;-4.40;99.90;;;;;;5052901;28;20033;-76
2024/01/10 00:02:52;;;;;;;51.30;19.70;;;-4.10;99.90;;;;;;5053578;28;20133;-74
2024/01/10 00:05:18;;;;;;;53.58;20.33;;;-4.20;99.90;;;;;;5057324;28;20021;-75
2024/01/10 00:07:43;;;;;;;49.05;17.88;;;-4.10;99.90;;;;;;5037182;28;20029;-77
2024/01/10 00:10:09;;;;;;;39.83;17.63;;;-4.00;99.90;;;;;;5039160;28;20036;-76
2024/01/10 00:12:36;;;;;;;60.17;19.90;;;-4.10;99.90;;;;;;5038715;28;20021;-76
2024/01/10 00:15:04;;;;;;;46.30;17.60;;;-3.70;99.90;;;;;;5051111;28;20021;-75
2024/01/10 00:17:30;;;;;;;46.85;20.13;;;-4.20;99.90;;;;;;5037794;28;20392;-75
2024/01/10 00:19:56;;;;;;;51.72;20.13;;;-4.10;99.90;;;;;;5036679;28;20603;-74
2024/01/10 00:22:21;;;;;;;49.55;18.48;;;-4.10;99.90;;;;;;5032325;28;20068;-75
2024/01/10 00:24:47;;;;;;;56.63;20.33;;;-4.10;99.90;;;;;;5035936;28;20131;-75
2024/01/10 00:27:13;;;;;;;57.30;19.73;;;-3.40;99.90;;;;;;5033850;28;20151;-76
2024/01/10 00:29:38;;;;;;;48.30;19.20;;;-3.80;99.90;;;;;;5032663;28;20115;-75
2024/01/10 00:32:04;;;;;;;54.65;19.80;;;-3.80;99.90;;;;;;5054271;28;20029;-77
2024/01/10 00:34:30;;;;;;;50.00;19.67;;;-4.00;99.90;;;;;;5038936;28;20067;-75
2024/01/10 00:36:55;;;;;;;49.38;18.75;;;-4.10;99.90;;;;;;5055018;28;20401;-73
2024/01/10 00:39:21;;;;;;;51.53;19.63;;;-4.00;99.90;;;;;;5058153;28;20085;-75
2024/01/10 00:41:47;;;;;;;62.15;21.95;;;-3.90;99.90;;;;;;5057158;28;20325;-73
2024/01/10 00:44:12;;;;;;;48.95;18.63;;;-3.80;99.90;;;;;;5038864;28;20086;-76
2024/01/10 00:46:38;;;;;;;53.03;19.08;;;-3.90;99.90;;;;;;5063634;28;20761;-73
2024/01/10 00:49:04;;;;;;;43.42;18.25;;;-4.00;99.90;;;;;;5036835;28;20116;-74
2024/01/10 00:51:29;;;;;;;50.08;19.10;;;-4.10;99.90;;;;;;5050418;28;20074;-75
2024/01/10 00:53:55;;;;;;;56.42;19.27;;;-4.10;99.90;;;;;;5055295;28;20280;-75
2024/01/10 00:56:20;;;;;;;48.92;18.83;;;-4.10;99.90;;;;;;5056556;28;20381;-78
2024/01/10 00:58:46;;;;;;;50.90;20.60;;;-4.00;99.90;;;;;;5052576;28;20469;-70
2024/01/10 01:01:12;;;;;;;53.58;19.77;;;-4.00;99.90;;;;;;5050727;28;20041;-74
2024/01/10 01:03:37;;;;;;;52.63;19.05;;;-3.40;99.90;;;;;;5055758;28;20076;-74
2024/01/10 01:06:03;;;;;;;56.00;21.58;;;-3.90;99.90;;;;;;5053240;28;20367;-76
2024/01/10 01:08:29;;;;;;;53.10;19.50;;;-4.00;99.90;;;;;;5035936;28;20021;-73
2024/01/10 01:10:54;;;;;;;52.22;22.13;;;-3.90;99.90;;;;;;5034363;28;20025;-75
2024/01/10 01:13:20;;;;;;;52.45;18.60;;;-4.10;99.90;;;;;;5050360;28;20021;-78
2024/01/10 01:15:46;;;;;;;54.22;19.73;;;-3.30;99.90;;;;;;5048840;28;20052;-75
2024/01/10 01:18:12;;;;;;;51.85;20.85;;;-4.10;99.90;;;;;;5054136;28;20033;-74
2024/01/10 01:20:38;;;;;;;52.00;19.58;;;-4.20;99.90;;;;;;5050825;28;20044;-73
2024/01/10 01:23:04;;;;;;;53.80;19.63;;;-3.70;99.90;;;;;;5051314;28;20056;-74
2024/01/10 01:25:29;;;;;;;47.40;19.73;;;-4.30;99.90;;;;;;5054465;28;20075;-75
2024/01/10 01:27:55;;;;;;;51.47;18.17;;;-4.20;99.90;;;;;;5051728;28;20029;-75
2024/01/10 01:30:21;;;;;;;55.40;19.95;;;-4.30;99.90;;;;;;5049058;28;20028;-70
2024/01/10 01:32:47;;;;;;;57.67;20.05;;;-4.30;99.90;;;;;;5048397;28;20496;-75
2024/01/10 01:35:13;;;;;;;54.78;20.27;;;-4.40;99.90;;;;;;5047996;28;20029;-76
2024/01/10 01:37:38;;;;;;;50.88;22.38;;;-4.40;99.90;;;;;;5046985;28;20486;-76
2024/01/10 01:40:05;;;;;;;59.33;21.08;;;-4.20;99.90;;;;;;5034609;28;20512;-75
2024/01/10 01:42:31;;;;;;;54.15;19.65;;;-4.50;99.90;;;;;;5053254;28;20048;-77
2024/01/10 01:45:02;;;;;;;53.10;19.48;;;-4.40;99.90;;;;;;5049773;28;20372;-79
2024/01/10 01:47:29;;;;;;;57.70;21.88;;;-4.40;99.90;;;;;;5051555;28;20083;-78
2024/01/10 01:49:56;;;;;;;55.80;20.70;;;-4.40;99.90;;;;;;5068423;28;20025;-74
2024/01/10 01:52:22;;;;;;;58.83;21.48;;;-4.40;99.90;;;;;;5070313;28;20017;-77
2024/01/10 01:54:49;;;;;;;50.72;20.50;;;-4.40;99.90;;;;;;5059770;28;20093;-78
2024/01/10 01:57:15;;;;;;;56.88;19.27;;;-4.40;99.90;;;;;;5026896;28;20033;-77
2024/01/10 01:59:40;;;;;;;63.13;20.65;;;-4.40;99.90;;;;;;5041239;28;20033;-79
2024/01/10 02:02:07;;;;;;;58.45;20.45;;;-4.40;99.90;;;;;;5044931;28;20067;-76
2024/01/10 02:04:33;;;;;;;60.03;21.58;;;-4.40;99.90;;;;;;5064722;28;20088;-80
2024/01/10 02:06:59;;;;;;;55.95;20.15;;;-4.30;99.90;;;;;;5055912;28;20076;-77
2024/01/10 02:09:25;;;;;;;63.42;23.65;;;-4.30;99.90;;;;;;5062948;28;20549;-76
2024/01/10 02:11:52;;;;;;;56.40;22.30;;;-3.00;99.90;;;;;;5041389;28;20032;-76
2024/01/10 02:14:18;;;;;;;47.88;17.60;;;-3.50;99.90;;;;;;5061986;28;20028;-73
2024/01/10 02:16:43;;;;;;;53.70;19.85;;;-4.60;99.90;;;;;;5056887;28;20102;-75
2024/01/10 02:19:23;;;;;;;51.88;19.45;;;-4.60;99.90;;;;;;5057465;28;20012;-75
2024/01/10 02:21:49;;;;;;;60.13;20.13;;;-4.50;99.90;;;;;;5059999;28;20041;-79
2024/01/10 02:24:15;;;;;;;67.60;21.00;;;-4.60;99.90;;;;;;5061760;28;20028;-77
2024/01/10 02:26:41;;;;;;;57.95;19.67;;;-4.50;99.90;;;;;;5058210;28;20473;-75
2024/01/10 02:29:06;;;;;;;54.65;19.50;;;-4.50;99.90;;;;;;5065923;28;20036;-78
2024/01/10 02:31:32;;;;;;;57.97;20.70;;;-4.50;99.90;;;;;;5065323;28;20078;-74
2024/01/10 02:33:58;;;;;;;67.13;21.80;;;-4.60;99.90;;;;;;5065950;28;20077;-76
2024/01/10 02:36:23;;;;;;;56.40;19.35;;;-4.70;99.90;;;;;;5054809;28;20033;-74
2024/01/10 02:38:50;;;;;;;63.70;23.52;;;-4.60;99.90;;;;;;5059382;28;20053;-71
2024/01/10 02:41:15;;;;;;;57.40;21.02;;;-4.60;99.90;;;;;;5061386;28;20074;-74
2024/01/10 02:43:41;;;;;;;58.92;20.42;;;-4.60;99.90;;;;;;5043787;28;20033;-74
2024/01/10 02:46:07;;;;;;;61.03;22.35;;;-4.30;99.90;;;;;;5057047;28;20052;-71
2024/01/10 02:48:32;;;;;;;60.45;23.65;;;-4.50;99.90;;;;;;5059217;28;20412;-71
2024/01/10 02:50:58;;;;;;;60.60;20.10;;;-4.70;99.90;;;;;;5058313;28;20040;-73
2024/01/10 02:53:24;;;;;;;71.70;21.50;;;-4.50;99.90;;;;;;5068603;28;20025;-74
2024/01/10 02:55:50;;;;;;;67.90;23.20;;;-4.40;99.90;;;;;;5068014;28;20032;-74
2024/01/10 02:58:16;;;;;;;62.67;21.45;;;-4.40;99.90;;;;;;5067222;28;20028;-74
2024/01/10 03:00:41;;;;;;;53.15;18.70;;;-4.40;99.90;;;;;;5065375;28;20212;-70
2024/01/10 03:03:07;;;;;;;60.08;20.55;;;-4.30;99.90;;;;;;5059076;28;20358;-69
2024/01/10 03:05:32;;;;;;;54.78;19.10;;;-4.50;99.90;;;;;;5059132;28;20052;-73
2024/01/10 03:07:58;;;;;;;65.10;22.00;;;-4.60;99.90;;;;;;5058033;28;20198;-71
2024/01/10 03:10:24;;;;;;;58.72;18.52;;;-4.60;99.90;;;;;;5062463;28;20029;-69
2024/01/10 03:12:49;;;;;;;67.03;21.85;;;-4.70;99.90;;;;;;5045175;28;20025;-69
2024/01/10 03:15:15;;;;;;;66.40;21.73;;;-4.70;99.90;;;;;;5062530;28;20048;-71
2024/01/10 03:17:41;;;;;;;58.30;21.55;;;-4.60;99.90;;;;;;5045064;28;20131;-72
2024/01/10 03:20:08;;;;;;;64.72;23.05;;;-4.50;99.90;;;;;;5061878;28;20017;-70
2024/01/10 03:22:35;;;;;;;64.95;23.52;;;-4.40;99.90;;;;;;5047081;28;20103;-69
2024/01/10 03:25:01;;;;;;;61.08;19.92;;;-4.30;99.90;;;;;;5057950;28;20059;-72
2024/01/10 03:27:26;;;;;;;67.75;22.85;;;-4.00;99.90;;;;;;5062410;28;20021;-69
2024/01/10 03:29:52;;;;;;;67.80;21.77;;;-4.20;99.90;;;;;;5059774;28;20036;-68
2024/01/10 03:32:17;;;;;;;62.38;20.25;;;-4.10;99.90;;;;;;5062197;28;20032;-69
2024/01/10 03:34:43;;;;;;;60.47;21.08;;;-4.10;99.90;;;;;;5055886;28;20029;-69
2024/01/10 03:37:09;;;;;;;56.70;20.45;;;-4.10;99.90;;;;;;5058898;28;20096;-70
2024/01/10 03:39:34;;;;;;;66.05;23.10;;;-4.20;99.90;;;;;;5062352;28;20033;-70
2024/01/10 03:42:00;;;;;;;58.55;20.30;;;-4.10;99.90;;;;;;5044377;28;20063;-71
2024/01/10 03:44:27;;;;;;;75.40;24.10;;;-4.10;99.90;;;;;;5055200;28;20125;-71
2024/01/10 03:46:52;;;;;;;68.63;22.50;;;-4.20;99.90;;;;;;5057826;28;20494;-71
2024/01/10 03:49:18;;;;;;;63.30;21.25;;;-4.10;99.90;;;;;;5055368;28;20033;-72
2024/01/10 03:51:44;;;;;;;70.38;23.40;;;-4.00;99.90;;;;;;5057037;28;20029;-71
2024/01/10 03:54:09;;;;;;;68.03;24.98;;;-3.90;99.90;;;;;;5052005;28;20025;-68
2024/01/10 03:56:35;;;;;;;60.88;22.35;;;-3.90;99.90;;;;;;5061509;28;20029;-71
2024/01/10 03:59:03;;;;;;;71.55;24.10;;;-3.90;99.90;;;;;;5040785;28;20483;-68
2024/01/10 04:01:29;;;;;;;65.87;22.00;;;-3.90;99.90;;;;;;5038676;28;20071;-71
2024/01/10 04:03:55;;;;;;;67.32;22.63;;;-3.90;99.90;;;;;;5053839;28;20291;-69
2024/01/10 04:06:20;;;;;;;65.35;22.38;;;-3.90;99.90;;;;;;5060749;28;20025;-67
2024/01/10 04:08:46;;;;;;;61.42;20.92;;;-3.90;99.90;;;;;;5060796;28;20025;-69
2024/01/10 04:11:11;;;;;;;66.93;22.42;;;-4.00;99.90;;;;;;5056664;28;20485;-70
2024/01/10 04:13:37;;;;;;;65.53;22.00;;;-4.00;99.90;;;;;;5059724;28;20039;-76
2024/01/10 04:16:03;;;;;;;77.78;21.73;;;-4.10;99.90;;;;;;5061514;28;20080;-75
2024/01/10 04:18:29;;;;;;;74.80;22.65;;;-4.00;99.90;;;;;;5060873;28;20037;-76
2024/01/10 04:20:54;;;;;;;60.78;21.90;;;-4.10;99.90;;;;;;5057684;28;20052;-71
2024/01/10 04:23:20;;;;;;;70.90;24.60;;;-4.30;99.90;;;;;;5052954;28;20033;-69
2024/01/10 04:25:46;;;;;;;78.47;24.25;;;-4.30;99.90;;;;;;5033860;28;20068;-73
2024/01/10 04:28:11;;;;;;;70.55;25.95;;;-4.30;99.90;;;;;;5055870;28;20059;-70
2024/01/10 04:30:37;;;;;;;73.18;24.58;;;-4.20;99.90;;;;;;5051716;28;20491;-73
2024/01/10 04:33:03;;;;;;;61.13;22.45;;;-4.10;99.90;;;;;;5050201;28;20052;-72
2024/01/10 04:35:29;;;;;;;66.00;22.95;;;-4.10;99.90;;;;;;5049432;28;20079;-72
2024/01/10 04:37:54;;;;;;;69.10;23.42;;;-4.10;99.90;;;;;;5041947;28;20032;-72
2024/01/10 04:40:20;;;;;;;76.72;26.15;;;-4.10;99.90;;;;;;5053875;28;20096;-72
2024/01/10 04:42:46;;;;;;;70.78;26.90;;;-4.00;99.90;;;;;;5053909;28;20041;-73
2024/01/10 04:45:11;;;;;;;67.20;24.58;;;-4.00;99.90;;;;;;5043947;28;20048;-74
2024/01/10 04:47:37;;;;;;;67.18;23.30;;;-4.00;99.90;;;;;;5060931;28;20025;-72
2024/01/10 04:50:03;;;;;;;62.53;22.05;;;-3.90;99.90;;;;;;5062304;28;20059;-74
2024/01/10 04:52:29;;;;;;;63.03;23.23;;;-3.80;99.90;;;;;;5045343;28;20082;-72
2024/01/10 04:54:54;;;;;;;59.97;23.20;;;-3.80;99.90;;;;;;5062259;28;20049;-73
2024/01/10 04:57:20;;;;;;;71.45;22.55;;;-3.80;99.90;;;;;;5053629;28;20445;-74
2024/01/10 04:59:45;;;;;;;69.57;23.65;;;-3.90;99.90;;;;;;5048938;28;20107;-74
2024/01/10 05:02:11;;;;;;;73.45;24.65;;;-3.80;99.90;;;;;;5031208;28;20068;-75
2024/01/10 05:04:37;;;;;;;70.93;25.23;;;-3.80;99.90;;;;;;5049261;28;20053;-75
2024/01/10 05:07:03;;;;;;;69.43;23.88;;;-3.80;99.90;;;;;;5048224;28;20029;-75
2024/01/10 05:09:28;;;;;;;77.25;25.52;;;-3.90;99.90;;;;;;5029382;28;20025;-74
2024/01/10 05:11:54;;;;;;;64.30;21.85;;;-3.00;99.90;;;;;;5047327;28;20095;-73
2024/01/10 05:14:21;;;;;;;67.53;22.60;;;-3.80;99.90;;;;;;5046350;28;20020;-73
2024/01/10 05:16:47;;;;;;;75.95;24.80;;;-3.70;99.90;;;;;;5031166;28;20083;-72
2024/01/10 05:19:13;;;;;;;69.07;25.10;;;-3.60;99.90;;;;;;5053190;28;20488;-74
2024/01/10 05:21:39;;;;;;;57.40;21.42;;;-3.70;99.90;;;;;;5048044;28;20053;-75
2024/01/10 05:24:05;;;;;;;60.80;20.95;;;-3.70;99.90;;;;;;5048267;28;20499;-73
2024/01/10 05:26:31;;;;;;;62.92;22.88;;;-3.70;99.90;;;;;;5046921;28;20025;-74
2024/01/10 05:28:57;;;;;;;62.65;22.55;;;-3.70;99.90;;;;;;5048056;28;20032;-72
2024/01/10 05:31:23;;;;;;;64.47;23.63;;;-3.80;99.90;;;;;;5048904;28;20385;-75
2024/01/10 05:33:48;;;;;;;69.32;23.48;;;-3.70;99.90;;;;;;5048083;28;20025;-72
2024/01/10 05:36:14;;;;;;;75.88;25.02;;;-3.60;99.90;;;;;;5050205;28;20075;-74
2024/01/10 05:38:40;;;;;;;66.65;24.45;;;-3.60;99.90;;;;;;5049538;28;20024;-73
2024/01/10 05:41:05;;;;;;;66.45;24.08;;;-3.60;99.90;;;;;;5049171;28;20037;-72
2024/01/10 05:43:31;;;;;;;61.58;23.08;;;-3.60;99.90;;;;;;5031368;28;20025;-72
2024/01/10 05:45:57;;;;;;;68.75;23.77;;;-3.70;99.90;;;;;;5049234;28;20033;-74
2024/01/10 05:48:23;;;;;;;62.92;23.27;;;-3.70;99.90;;;;;;5049322;28;20021;-75
2024/01/10 05:50:50;;;;;;;66.43;22.67;;;-3.80;99.90;;;;;;5049630;28;20020;-75
2024/01/10 05:53:16;;;;;;;73.05;24.05;;;-3.80;99.90;;;;;;5049930;28;20052;-74
2024/01/10 05:55:45;;;;;;;68.95;24.30;;;-3.90;99.90;;;;;;5048017;28;20056;-74
2024/01/10 05:58:11;;;;;;;59.75;22.23;;;-4.00;99.90;;;;;;5049526;28;20024;-75
2024/01/10 06:00:37;;;;;;;57.10;22.73;;;-4.00;99.90;;;;;;5050033;28;20025;-74
2024/01/10 06:03:03;;;;;;;70.32;25.08;;;-4.00;99.90;;;;;;5057301;28;20064;-71
2024/01/10 06:05:29;;;;;;;59.65;22.58;;;-4.10;99.90;;;;;;5040976;28;20021;-72
2024/01/10 06:07:54;;;;;;;76.25;24.80;;;-4.20;99.90;;;;;;5051007;28;20021;-72
2024/01/10 06:10:20;;;;;;;87.95;26.50;;;-4.20;99.90;;;;;;5055440;28;20021;-72
2024/01/10 06:12:46;;;;;;;73.55;24.58;;;-4.20;99.90;;;;;;5052599;28;20027;-71
2024/01/10 06:15:11;;;;;;;78.47;25.88;;;-4.20;99.90;;;;;;5057588;28;20096;-71
2024/01/10 06:17:37;;;;;;;85.22;28.02;;;-4.20;99.90;;;;;;5052794;28;20191;-72
2024/01/10 06:20:04;;;;;;;85.53;28.15;;;-4.20;99.90;;;;;;5052822;28;20025;-71
2024/01/10 06:22:30;;;;;;;74.38;25.77;;;-4.20;99.90;;;;;;5057950;28;20119;-71
2024/01/10 06:24:55;;;;;;;77.32;25.67;;;-4.10;99.90;;;;;;5054147;28;20057;-73
2024/01/10 06:27:21;;;;;;;78.00;26.17;;;-4.10;99.90;;;;;;5052573;28;20055;-72
2024/01/10 06:29:47;;;;;;;75.45;25.83;;;-4.10;99.90;;;;;;5038600;28;20335;-72
2024/01/10 06:32:14;;;;;;;80.72;26.05;;;-4.10;99.90;;;;;;5048559;28;20025;-75
2024/01/10 06:34:40;;;;;;;80.93;24.52;;;-4.20;99.90;;;;;;5048036;28;20137;-73
2024/01/10 06:37:07;;;;;;;78.65;27.25;;;-4.40;99.90;;;;;;5048311;28;20612;-74
2024/01/10 06:39:33;;;;;;;82.47;27.75;;;-4.40;99.90;;;;;;5030525;28;20580;-75
2024/01/10 06:41:59;;;;;;;70.88;24.63;;;-4.50;99.90;;;;;;5047950;28;20447;-74
2024/01/10 06:44:24;;;;;;;71.43;25.02;;;-4.70;99.90;;;;;;5047437;28;20476;-74
2024/01/10 06:46:50;;;;;;;79.68;27.33;;;-4.80;99.90;;;;;;5047150;28;20033;-74
2024/01/10 06:49:16;;;;;;;72.55;26.13;;;-5.00;99.90;;;;;;5047428;28;20029;-72
2024/01/10 06:51:42;;;;;;;72.38;23.98;;;-5.10;99.90;;;;;;5050816;28;20396;-74
2024/01/10 06:54:08;;;;;;;72.10;25.48;;;-5.20;99.90;;;;;;5050622;28;20474;-72
2024/01/10 06:56:34;;;;;;;74.15;23.05;;;-5.40;99.90;;;;;;5049400;28;20029;-71
2024/01/10 06:59:01;;;;;;;70.75;25.30;;;-5.40;99.90;;;;;;5033747;28;20192;-74
2024/01/10 07:01:27;;;;;;;73.25;22.60;;;-5.40;99.90;;;;;;5052980;28;20029;-73
2024/01/10 07:03:56;;;;;;;73.72;23.20;;;-5.60;99.90;;;;;;5052797;28;20071;-74
2024/01/10 07:06:22;;;;;;;;;;;-5.70;99.90;;;;;;5034877;28;20029;-72
2024/01/10 07:08:49;;;;;;;64.57;20.33;;;-5.80;99.90;;;;;;5052155;28;19905;-75
2024/01/10 07:11:16;;;;;;;67.50;20.70;;;-5.90;99.90;;;;;;5051894;28;20025;-74
2024/01/10 07:13:42;;;;;;;66.22;23.42;;;-6.10;99.90;;;;;;5051314;28;20031;-70
2024/01/10 07:16:09;;;;;;;73.45;22.50;;;-6.20;99.90;;;;;;5052077;28;20298;-74
2024/01/10 07:18:35;;;;;;;63.65;22.25;;;-6.30;99.90;;;;;;5051572;28;20401;-69
2024/01/10 07:21:01;;;;;;;69.00;20.98;;;-6.40;99.90;;;;;;5033580;28;20045;-74
2024/01/10 07:23:27;;;;;;;69.32;21.38;;;-6.50;99.90;;;;;;5051872;28;20029;-75
2024/01/10 07:25:53;;;;;;;69.88;20.98;;;-6.50;99.90;;;;;;5051689;28;20105;-70
2024/01/10 07:28:19;;;;;;;63.75;19.92;;;-6.50;99.90;;;;;;5051929;28;20031;-70
2024/01/10 07:30:45;;;;;;;66.28;20.08;;;-6.60;99.90;;;;;;5052617;28;20052;-69
2024/01/10 07:33:11;;;;;;;74.35;22.27;;;-6.60;99.90;;;;;;5051883;28;20039;-75
2024/01/10 07:35:38;;;;;;;75.35;24.17;;;-6.60;99.90;;;;;;5033417;28;20029;-77
2024/01/10 07:38:07;;;;;;;79.05;23.80;;;-6.60;99.90;;;;;;5048422;28;20025;-72
2024/01/10 07:40:33;;;;;;;60.70;19.40;;;-6.60;99.90;;;;;;5052201;28;20080;-69
2024/01/10 07:42:59;;;;;;;67.07;21.83;;;-6.40;99.90;;;;;;5049570;28;20033;-69
2024/01/10 07:45:25;;;;;;;61.70;21.60;;;-6.50;99.90;;;;;;5048171;28;20104;-70
2024/01/10 07:47:51;;;;;;;63.88;21.40;;;-6.40;99.90;;;;;;5050670;28;20099;-69
2024/01/10 07:50:17;;;;;;;70.93;22.23;;;-6.40;99.90;;;;;;5049355;28;20060;-75
2024/01/10 07:52:43;;;;;;;62.55;18.95;;;-6.40;99.90;;;;;;5040799;28;20025;-75
2024/01/10 07:55:09;;;;;;;63.03;21.33;;;-6.20;99.90;;;;;;5060973;28;20020;-70
2024/01/10 07:57:36;;;;;;;70.85;23.17;;;-6.30;99.90;;;;;;5043597;28;20071;-72
2024/01/10 08:00:09;;;;;;;67.72;20.40;;;-6.20;99.90;;;;;;5059611;28;20025;-69
2024/01/10 08:02:35;;;;;;;58.88;20.73;;;-6.00;99.90;;;;;;5053751;28;20183;-72
2024/01/10 08:05:08;;;;;;;74.20;22.20;;;-5.90;99.90;;;;;;5058084;28;20156;-74
2024/01/10 08:07:34;;;;;;;67.50;21.38;;;-5.70;99.90;;;;;;5042774;28;20194;-70
2024/01/10 08:10:00;;;;;;;65.38;21.02;;;-5.70;99.90;;;;;;5058087;28;20023;-70
2024/01/10 08:12:26;;;;;;;68.53;20.27;;;-5.70;99.90;;;;;;5059506;28;20087;-72
2024/01/10 08:14:51;;;;;;;71.45;22.88;;;-5.70;99.90;;;;;;5058164;28;20082;-70
2024/01/10 08:17:17;;;;;;;68.18;21.83;;;-5.50;99.90;;;;;;5055686;28;20067;-71
2024/01/10 08:19:43;;;;;;;71.53;25.00;;;-5.40;99.90;;;;;;5053860;28;20325;-69
2024/01/10 08:22:08;;;;;;;77.13;22.83;;;-5.30;99.90;;;;;;5054182;28;20434;-69
2024/01/10 08:24:34;;;;;;;75.07;21.10;;;-5.00;99.90;;;;;;5058962;28;20029;-69
2024/01/10 08:27:01;;;;;;;79.57;23.40;;;-4.90;99.90;;;;;;5058584;28;20378;-70
2024/01/10 08:29:31;;;;;;;80.97;23.52;;;-4.80;99.90;;;;;;5049720;28;20040;-70
2024/01/10 08:31:57;;;;;;;73.65;24.33;;;-4.90;99.90;;;;;;5027971;28;20025;-69
2024/01/10 08:34:23;;;;;;;74.85;24.75;;;-4.80;99.90;;;;;;5058713;28;20037;-74
2024/01/10 08:36:51;;;;;;;88.22;27.55;;;-4.50;99.90;;;;;;5059085;28;20017;-76
2024/01/10 08:39:17;;;;;;;265.52;90.63;;;-4.30;99.90;;;;;;5043986;28;20100;-70
2024/01/10 08:41:44;;;;;;;104.50;31.40;;;-3.80;99.90;;;;;;5040176;28;20045;-75
2024/01/10 08:44:12;;;;;;;74.30;24.27;;;-3.70;99.90;;;;;;5059504;28;20031;-70
2024/01/10 08:46:38;;;;;;;82.10;24.75;;;-3.60;99.90;;;;;;5060303;28;20062;-74
2024/01/10 08:49:04;;;;;;;83.07;30.38;;;-3.40;99.90;;;;;;5059684;28;20017;-74
2024/01/10 08:51:30;;;;;;;83.72;27.90;;;-3.40;99.90;;;;;;5059765;28;20021;-75
2024/01/10 08:53:56;;;;;;;100.40;31.48;;;-3.30;99.90;;;;;;5058535;28;20013;-70
2024/01/10 08:56:22;;;;;;;93.28;31.27;;;-3.30;99.90;;;;;;5059170;28;20029;-73
2024/01/10 08:58:48;;;;;;;74.53;26.17;;;-3.00;99.90;;;;;;5059700;28;20371;-70
2024/01/10 09:01:14;;;;;;;80.88;26.85;;;-2.80;99.90;;;;;;5060066;28;20051;-70
2024/01/10 09:03:39;;;;;;;71.85;23.33;;;-2.50;99.90;;;;;;5060465;28;20035;-69
2024/01/10 09:06:07;;;;;;;64.47;22.63;;;-2.40;99.90;;;;;;5058199;28;20032;-70
2024/01/10 09:08:33;;;;;;;69.65;23.33;;;-2.80;99.90;;;;;;5059488;28;20209;-69
2024/01/10 09:10:59;;;;;;;74.47;23.95;;;-2.60;99.90;;;;;;5049875;28;20025;-70
2024/01/10 09:13:24;;;;;;;67.75;22.80;;;-2.50;99.90;;;;;;5059555;28;20347;-75
2024/01/10 09:15:50;;;;;;;80.03;24.20;;;-2.80;99.90;;;;;;5059544;28;20028;-70
2024/01/10 09:18:16;;;;;;;77.07;23.88;;;-2.90;99.90;;;;;;5057113;28;20021;-71
2024/01/10 09:20:42;;;;;;;72.65;24.25;;;-2.60;99.90;;;;;;5059600;28;20290;-69
2024/01/10 09:23:07;;;;;;;71.22;23.25;;;-2.70;99.90;;;;;;5060120;28;20349;-70
2024/01/10 09:25:33;;;;;;;72.55;25.17;;;-2.40;99.90;;;;;;5059462;28;20025;-70
2024/01/10 09:27:58;;;;;;;82.07;28.88;;;-2.30;99.90;;;;;;5060183;28;20020;-72
2024/01/10 09:30:24;;;;;;;96.68;40.30;;;-2.30;99.90;;;;;;5060583;28;20028;-70
2024/01/10 09:32:50;;;;;;;74.75;25.10;;;-2.20;99.90;;;;;;5042312;28;20056;-70
2024/01/10 09:35:17;;;;;;;79.78;25.23;;;-2.10;99.90;;;;;;5059993;28;20036;-70
2024/01/10 09:37:45;;;;;;;74.15;24.17;;;-1.90;99.90;;;;;;5042247;28;20216;-70
2024/01/10 09:40:14;;;;;;;69.75;21.65;;;-2.00;99.90;;;;;;5059790;28;20057;-70
2024/01/10 09:42:40;;;;;;;;;;;-2.00;99.90;;;;;;5059970;28;20160;-70
2024/01/10 09:45:08;;;;;;;72.18;23.65;;;-1.90;99.90;;;;;;5060219;28;20108;-70
2024/01/10 09:47:37;;;;;;;79.60;21.27;;;-1.50;99.90;;;;;;5060049;28;20217;-74
2024/01/10 09:50:03;;;;;;;61.20;19.58;;;-1.40;99.90;;;;;;5058631;28;20028;-69
2024/01/10 09:52:35;;;;;;;72.18;23.88;;;-1.60;99.90;;;;;;5059432;28;20021;-70
2024/01/10 09:55:01;;;;;;;65.32;22.48;;;-1.60;99.90;;;;;;5058975;28;20041;-69
2024/01/10 09:57:27;;;;;;;73.03;26.48;;;-1.60;99.90;;;;;;5043106;28;20091;-70
2024/01/10 09:59:54;;;;;;;76.28;24.55;;;-1.90;99.90;;;;;;5049922;28;20329;-68
2024/01/10 10:02:22;;;;;;;58.72;20.65;;;-1.60;99.90;;;;;;5058910;28;20043;-73
2024/01/10 10:05:17;;;;;;;64.28;23.60;;;-1.70;99.90;;;;;;5059140;28;20324;-70
2024/01/10 10:07:46;;;;;;;61.55;21.08;;;-1.80;99.90;;;;;;5037666;28;20037;-71
2024/01/10 10:10:12;;;;;;;67.07;23.40;;;-1.80;99.90;;;;;;5059280;28;20089;-71
2024/01/10 10:12:56;;;;;;;61.92;22.23;;;-1.80;99.90;;;;;;5041108;28;20032;-74
2024/01/10 10:15:23;;;;;;;56.67;20.15;;;-1.70;99.90;;;;;;5059272;28;20024;-71
2024/01/10 10:17:50;;;;;;;64.22;23.50;;;-1.80;99.90;;;;;;5059313;28;20035;-71
2024/01/10 10:20:27;;;;;;;78.88;27.40;;;-1.10;99.90;;;;;;5052069;28;20023;-70
2024/01/10 10:23:03;;;;;;;68.43;25.55;;;-1.80;99.90;;;;;;5028111;28;20037;-73
2024/01/10 10:25:33;;;;;;;62.90;22.52;;;-1.90;99.90;;;;;;5061233;28;20020;-70
2024/01/10 10:28:00;;;;;;;65.53;22.73;;;-1.90;99.90;;;;;;5063086;28;20074;-72
2024/01/10 10:30:26;;;;;;;72.07;23.20;;;-1.70;99.90;;;;;;5044098;28;20037;-72
2024/01/10 10:32:53;;;;;;;63.60;21.98;;;-0.80;99.90;;;;;;5061086;28;20396;-69
2024/01/10 10:35:20;;;;;;;75.88;24.13;;;-0.70;99.90;;;;;;5043125;28;20381;-71
2024/01/10 10:37:48;;;;;;;59.90;22.67;;;-1.60;99.90;;;;;;5047025;28;20078;-71
2024/01/10 10:40:13;;;;;;;68.60;26.27;;;-1.60;99.90;;;;;;5062587;28;20045;-73
2024/01/10 10:42:46;;;;;;;72.00;24.02;;;-2.00;99.90;;;;;;5060948;28;20048;-72
2024/01/10 10:45:18;;;;;;;73.50;24.83;;;-1.70;99.90;;;;;;5045397;28;20021;-71
2024/01/10 10:47:48;;;;;;;69.18;24.25;;;-1.50;99.90;;;;;;5063220;28;20021;-73
2024/01/10 10:50:21;;;;;;;69.85;23.23;;;-1.70;99.90;;;;;;5062014;28;20020;-76
2024/01/10 10:52:48;;;;;;;77.15;24.77;;;-1.60;99.90;;;;;;5059951;28;20031;-72
2024/01/10 10:55:19;;;;;;;71.95;25.77;;;-0.70;99.90;;;;;;5045123;28;20033;-76
2024/01/10 10:57:48;;;;;;;71.13;24.08;;;-1.40;99.90;;;;;;5063537;28;20013;-74
2024/01/10 11:00:17;;;;;;;86.25;26.42;;;-1.50;99.90;;;;;;5045009;28;20363;-76
2024/01/10 11:02:45;;;;;;;77.63;26.10;;;-1.50;99.90;;;;;;5061308;28;20178;-73
2024/01/10 11:05:11;;;;;;;83.25;26.05;;;-1.30;99.90;;;;;;5045451;28;20092;-73
2024/01/10 11:07:39;;;;;;;85.68;27.20;;;-0.90;99.90;;;;;;5062227;28;20025;-73
2024/01/10 11:10:37;;;;;;;77.45;26.67;;;-0.80;99.90;;;;;;5044961;28;20033;-75
2024/01/10 11:13:06;;;;;;;73.22;25.60;;;-0.80;99.90;;;;;;5061692;28;20032;-78
2024/01/10 11:16:03;;;;;;;74.93;23.02;;;-0.60;99.90;;;;;;5069267;28;20033;-77
2024/01/10 11:18:41;;;;;;;65.60;24.15;;;-0.80;99.90;;;;;;5073203;28;20013;-76
2024/01/10 11:21:30;;;;;;;67.82;27.00;;;-0.90;99.90;;;;;;5070122;28;20057;-72
2024/01/10 11:24:00;;;;;;;61.45;22.60;;;-1.00;99.90;;;;;;5064100;28;20090;-73
2024/01/10 11:26:26;;;;;;;59.75;23.77;;;-1.00;99.90;;;;;;5049680;28;20062;-76
2024/01/10 11:28:52;;;;;;;71.57;27.02;;;-1.00;99.90;;;;;;5061439;28;20036;-73
2024/01/10 11:31:31;;;;;;;60.63;23.88;;;-0.70;99.90;;;;;;5061886;28;20047;-74
2024/01/10 11:33:57;;;;;;;60.22;21.88;;;-0.40;99.90;;;;;;5062253;28;20036;-75
2024/01/10 11:36:24;;;;;;;63.42;21.88;;;-0.40;99.90;;;;;;5060361;28;20201;-74
2024/01/10 11:39:01;;;;;;;62.42;25.05;;;-0.40;99.90;;;;;;5036762;28;20021;-74
2024/01/10 11:41:29;;;;;;;59.20;22.73;;;-0.40;99.90;;;;;;5058737;28;20049;-74
2024/01/10 11:44:17;;;;;;;54.35;19.77;;;-0.30;99.90;;;;;;5062661;28;20021;-75
2024/01/10 11:46:46;;;;;;;61.15;22.48;;;-0.40;99.90;;;;;;5044296;28;20242;-75
2024/01/10 11:49:15;;;;;;;61.35;23.77;;;-0.50;99.90;;;;;;5062226;28;20188;-74
2024/01/10 11:51:45;;;;;;;66.30;22.60;;;-0.60;99.90;;;;;;5061645;28;20029;-75
2024/01/10 11:54:11;;;;;;;66.72;21.45;;;-0.50;99.90;;;;;;5044303;28;20070;-75
2024/01/10 11:56:41;;;;;;;74.68;21.02;;;-0.30;99.90;;;;;;5057133;28;20037;-77
2024/01/10 11:59:11;;;;;;;43.05;16.85;;;-0.30;99.90;;;;;;5042174;28;20028;-77
2024/01/10 12:01:38;;;;;;;53.78;21.40;;;-0.50;99.90;;;;;;5061266;28;20377;-75
2024/01/10 12:04:04;;;;;;;65.85;22.85;;;-0.60;99.90;;;;;;5060780;28;20052;-75
2024/01/10 12:06:31;;;;;;;56.40;20.90;;;-0.70;99.90;;;;;;5058501;28;20093;-74
2024/01/10 12:08:57;;;;;;;62.25;23.38;;;-0.70;99.90;;;;;;5058281;28;20527;-76
2024/01/10 12:11:23;;;;;;;71.60;25.10;;;-0.60;99.90;;;;;;5045035;28;20028;-74
2024/01/10 12:13:51;;;;;;;78.18;29.30;;;-0.50;99.90;;;;;;5041524;28;20048;-75
2024/01/10 12:16:17;;;;;;;56.97;20.00;;;-0.50;99.90;;;;;;5061044;28;20233;-75
2024/01/10 12:18:43;;;;;;;62.72;20.40;;;-0.40;99.90;;;;;;5059974;28;20049;-75
2024/01/10 12:21:10;;;;;;;65.78;23.83;;;-0.60;99.90;;;;;;5045439;28;20037;-75
2024/01/10 12:23:36;;;;;;;60.17;22.88;;;-0.60;99.90;;;;;;5040226;28;20025;-75
2024/01/10 12:26:07;;;;;;;74.05;27.83;;;-0.30;99.90;;;;;;5042987;28;20051;-74